createdAt,value
2016-05-18T00:00:30.150Z,69.38
2016-05-18T00:01:30.152Z,69.48
2016-05-18T00:02:30.140Z,69.29
2016-05-18T00:03:30.142Z,69.57
2016-05-18T00:04:30.130Z,69.57
2016-05-18T00:05:30.133Z,69.57
2016-05-18T00:06:42.713Z,69.67
2016-05-18T00:07:30.153Z,69.38
2016-05-18T00:08:30.124Z,69.1
2016-05-18T00:09:30.127Z,68.62
2016-05-18T00:10:30.115Z,68.15
2016-05-18T00:11:30.133Z,68.15
2016-05-18T00:12:30.104Z,68.18
2016-05-18T00:13:30.123Z,67.67
2016-05-18T00:14:30.126Z,67.67
2016-05-18T00:15:30.096Z,67.67
2016-05-18T00:16:30.115Z,67.95
2016-05-18T00:17:30.134Z,67.29
2016-05-18T00:18:30.105Z,67.32
2016-05-18T00:19:42.857Z,67.22
2016-05-18T00:20:29.970Z,67.32
2016-05-18T00:21:30.112Z,67.13
2016-05-18T00:22:30.115Z,67.22
2016-05-18T00:23:29.962Z,67.32
2016-05-18T00:24:30.105Z,67.86
2016-05-18T00:25:30.093Z,67.76
2016-05-18T00:26:30.095Z,67.61
2016-05-18T00:27:30.081Z,67.7
2016-05-18T00:28:30.084Z,68.08
2016-05-18T00:29:30.087Z,68.18
2016-05-18T00:30:42.809Z,68.08
2016-05-18T00:31:30.155Z,68.46
2016-05-18T00:32:30.096Z,68.56
2016-05-18T00:33:30.083Z,68.65
2016-05-18T00:34:30.085Z,68.65
2016-05-18T00:35:42.822Z,68.94
2016-05-18T00:36:29.919Z,68.33
2016-05-18T00:37:30.077Z,68.71
2016-05-18T00:38:30.081Z,68.71
2016-05-18T00:39:30.068Z,69.13
2016-05-18T00:40:30.070Z,69.04
2016-05-18T00:41:42.792Z,68.9
2016-05-18T00:42:30.076Z,68.46
2016-05-18T00:43:30.046Z,68.52
2016-05-18T00:44:30.066Z,68.62
2016-05-18T00:45:42.802Z,68.43
2016-05-18T00:46:30.055Z,68.62
2016-05-18T00:47:30.057Z,69.1
2016-05-18T00:48:30.076Z,69.48
2016-05-18T00:49:30.047Z,69.67
2016-05-18T00:50:30.035Z,69.57
2016-05-18T00:51:30.037Z,69.29
2016-05-18T00:52:29.915Z,69.38
2016-05-18T00:53:42.840Z,69.48
2016-05-18T00:54:30.045Z,69.95
2016-05-18T00:55:30.048Z,70.24
2016-05-18T00:56:30.050Z,70.52
2016-05-18T00:57:30.037Z,70.43
2016-05-18T00:58:30.056Z,70.9
2016-05-18T00:59:30.028Z,70.9
2016-05-18T01:00:42.764Z,71.38
2016-05-18T01:01:42.767Z,71.67
2016-05-18T01:02:30.036Z,71.86
2016-05-18T01:03:30.022Z,71.76
2016-05-18T01:04:30.025Z,71
2016-05-18T01:05:29.872Z,70.81
2016-05-18T01:06:42.781Z,70.72
2016-05-18T01:07:30.064Z,70.62
2016-05-18T01:08:30.005Z,70.52
2016-05-18T01:09:30.008Z,70.81
2016-05-18T01:10:30.010Z,70.9
2016-05-18T01:11:30.013Z,70.81
2016-05-18T01:12:42.749Z,70.52
2016-05-18T01:13:30.003Z,71
2016-05-18T01:14:29.833Z,70.33
2016-05-18T01:15:29.992Z,70.43
2016-05-18T01:16:29.995Z,70.24
2016-05-18T01:17:49.201Z,70.52
2016-05-18T01:18:42.735Z,70.52
2016-05-18T01:19:29.831Z,70.24
2016-05-18T01:20:55.507Z,70.52
2016-05-18T01:21:29.977Z,70.9
2016-05-18T01:22:30.152Z,70.72
2016-05-18T01:23:29.982Z,70.52
2016-05-18T01:24:29.969Z,70.62
2016-05-18T01:25:29.973Z,70.9
2016-05-18T01:26:29.819Z,71.09
2016-05-18T01:27:29.993Z,71.57
2016-05-18T01:28:29.981Z,71.67
2016-05-18T01:29:29.827Z,71.47
2016-05-18T01:30:29.986Z,71.57
2016-05-18T01:31:29.972Z,72.33
2016-05-18T01:32:29.820Z,72.24
2016-05-18T01:33:29.963Z,72.14
2016-05-18T01:34:29.981Z,72.71
2016-05-18T01:35:29.968Z,72.52
2016-05-18T01:36:29.799Z,72.33
2016-05-18T01:37:29.974Z,72.71
2016-05-18T01:38:29.960Z,72.62
2016-05-18T01:39:29.947Z,72.33
2016-05-18T01:40:29.966Z,72.81
2016-05-18T01:41:29.938Z,72.81
2016-05-18T01:42:29.940Z,73.06
2016-05-18T01:43:29.943Z,73
2016-05-18T01:44:49.149Z,73.34
2016-05-18T01:45:29.932Z,73.44
2016-05-18T01:46:29.935Z,73.25
2016-05-18T01:47:29.782Z,73.34
2016-05-18T01:48:29.785Z,73.44
2016-05-18T01:49:29.927Z,74.01
2016-05-18T01:50:29.946Z,73.53
2016-05-18T01:51:29.932Z,73.72
2016-05-18T01:52:29.935Z,73.53
2016-05-18T01:53:29.923Z,73.63
2016-05-18T01:54:29.925Z,73.82
2016-05-18T01:55:29.912Z,73.34
2016-05-18T01:56:29.915Z,73.28
2016-05-18T01:57:29.918Z,72.96
2016-05-18T01:58:29.905Z,73.38
2016-05-18T01:59:29.908Z,73.76
2016-05-18T02:00:29.926Z,73.38
2016-05-18T02:01:29.897Z,73.38
2016-05-18T02:02:29.901Z,73.47
2016-05-18T02:03:29.903Z,72.71
2016-05-18T02:04:29.952Z,72.81
2016-05-18T02:05:29.939Z,73.1
2016-05-18T02:06:29.911Z,73
2016-05-18T02:07:29.882Z,73
2016-05-18T02:08:29.885Z,72.9
2016-05-18T02:09:29.903Z,73
2016-05-18T02:10:29.890Z,72.24
2016-05-18T02:11:29.878Z,72.62
2016-05-18T02:12:29.880Z,72.33
2016-05-18T02:13:29.882Z,72.14
2016-05-18T02:14:29.886Z,72.33
2016-05-18T02:15:29.888Z,71.95
2016-05-18T02:16:29.891Z,71.57
2016-05-18T02:17:29.877Z,71.86
2016-05-18T02:18:29.724Z,71.67
2016-05-18T02:19:29.868Z,71.95
2016-05-18T02:20:29.870Z,71.47
2016-05-18T02:21:29.857Z,72.24
2016-05-18T02:22:29.860Z,71.67
2016-05-18T02:23:30.254Z,71.86
2016-05-18T02:24:29.865Z,71.67
2016-05-18T02:25:49.071Z,71.67
2016-05-18T02:26:37.152Z,71.76
2016-05-18T02:27:35.733Z,71.09
2016-05-18T02:28:35.736Z,70.72
2016-05-18T02:29:35.722Z,70.52
2016-05-18T02:30:35.742Z,71.09
2016-05-18T02:31:35.728Z,70.62
2016-05-18T02:32:35.747Z,71
2016-05-18T02:33:35.733Z,70.9
2016-05-18T02:34:35.736Z,71.09
2016-05-18T02:35:35.723Z,70.9
2016-05-18T02:36:35.742Z,70.81
2016-05-18T02:37:35.728Z,70.62
2016-05-18T02:38:54.934Z,70.81
2016-05-18T02:39:35.734Z,70.81
2016-05-18T02:40:35.721Z,71.09
2016-05-18T02:41:35.708Z,71.28
2016-05-18T02:42:35.695Z,71.76
2016-05-18T02:43:35.697Z,71.38
2016-05-18T02:44:35.700Z,71.76
2016-05-18T02:45:35.687Z,71.28
2016-05-18T02:46:35.706Z,71.19
2016-05-18T02:47:54.912Z,71.19
2016-05-18T02:48:35.696Z,71.28
2016-05-18T02:49:35.542Z,71.09
2016-05-18T02:50:35.686Z,71.95
2016-05-18T02:51:35.688Z,71.09
2016-05-18T02:52:35.753Z,71.76
2016-05-18T02:53:35.694Z,71.63
2016-05-18T02:54:35.681Z,71.57
2016-05-18T02:55:35.698Z,71.53
2016-05-18T02:56:35.686Z,71.82
2016-05-18T02:57:35.673Z,71.63
2016-05-18T02:58:48.410Z,72.2
2016-05-18T02:59:35.522Z,72.39
2016-05-18T03:00:35.681Z,72.49
2016-05-18T03:01:35.668Z,71.95
2016-05-18T03:02:35.655Z,72.14
2016-05-18T03:03:48.251Z,71.57
2016-05-18T03:04:35.661Z,71.91
2016-05-18T03:05:35.507Z,71.86
2016-05-18T03:06:35.650Z,71.57
2016-05-18T03:07:35.497Z,71.63
2016-05-18T03:08:35.655Z,72.05
2016-05-18T03:09:35.642Z,72.11
2016-05-18T03:10:35.505Z,71.95
2016-05-18T03:11:35.647Z,72.42
2016-05-18T03:12:35.636Z,72.52
2016-05-18T03:13:35.638Z,72.3
2016-05-18T03:14:35.640Z,72.42
2016-05-18T03:15:35.627Z,72.71
2016-05-18T03:16:35.630Z,72.42
2016-05-18T03:17:35.649Z,73.19
2016-05-18T03:18:54.838Z,72.71
2016-05-18T03:19:35.624Z,72.71
2016-05-18T03:20:35.641Z,72.71
2016-05-18T03:21:35.628Z,72.42
2016-05-18T03:22:36.052Z,72.81
2016-05-18T03:23:36.101Z,72.42
2016-05-18T03:24:35.621Z,72.71
2016-05-18T03:25:35.607Z,73.47
2016-05-18T03:26:35.454Z,73.28
2016-05-18T03:27:35.598Z,73.76
2016-05-18T03:28:35.615Z,73.19
2016-05-18T03:29:35.634Z,73.28
2016-05-18T03:30:35.621Z,73.66
2016-05-18T03:31:54.812Z,73.57
2016-05-18T03:32:35.454Z,73.76
2016-05-18T03:33:35.676Z,73.38
2016-05-18T03:34:35.600Z,73.19
2016-05-18T03:35:35.603Z,73.19
2016-05-18T03:36:35.606Z,72.81
2016-05-18T03:37:35.592Z,73
2016-05-18T03:38:35.581Z,73
2016-05-18T03:39:35.582Z,73
2016-05-18T03:40:35.569Z,72.71
2016-05-18T03:41:35.416Z,72.52
2016-05-18T03:42:35.591Z,72.62
2016-05-18T03:43:35.578Z,72.24
2016-05-18T03:44:35.581Z,72.71
2016-05-18T03:45:35.583Z,72.71
2016-05-18T03:46:35.571Z,72.9
2016-05-18T03:47:48.152Z,73.19
2016-05-18T03:48:35.576Z,73
2016-05-18T03:49:35.563Z,73.19
2016-05-18T03:50:35.566Z,73.47
2016-05-18T03:51:35.568Z,73.85
2016-05-18T03:52:35.555Z,73.66
2016-05-18T03:53:35.557Z,73.76
2016-05-18T03:54:35.561Z,74.14
2016-05-18T03:55:35.563Z,74.04
2016-05-18T03:56:35.551Z,74.04
2016-05-18T03:57:35.554Z,73.57
2016-05-18T03:58:35.571Z,73.57
2016-05-18T03:59:35.402Z,73.19
2016-05-18T04:00:35.545Z,73
2016-05-18T04:01:35.548Z,73.66
2016-05-18T04:02:35.551Z,72.9
2016-05-18T04:03:35.538Z,72.24
2016-05-18T04:04:35.556Z,72.24
2016-05-18T04:05:35.543Z,72.52
2016-05-18T04:06:48.265Z,72.33
2016-05-18T04:07:35.517Z,71.76
2016-05-18T04:08:35.536Z,71.57
2016-05-18T04:09:35.523Z,71.76
2016-05-18T04:10:35.541Z,70.9
2016-05-18T04:11:35.513Z,71.09
2016-05-18T04:12:35.531Z,70.43
2016-05-18T04:13:48.269Z,70.24
2016-05-18T04:14:35.521Z,70.24
2016-05-18T04:15:35.508Z,70.24
2016-05-18T04:16:54.729Z,70.05
2016-05-18T04:17:35.357Z,69.85
2016-05-18T04:18:35.563Z,70.24
2016-05-18T04:19:35.502Z,69.95
2016-05-18T04:20:35.506Z,69.85
2016-05-18T04:21:35.508Z,69.67
2016-05-18T04:22:55.496Z,69.57
2016-05-18T04:23:35.498Z,69.67
2016-05-18T04:24:35.501Z,69.48
2016-05-18T04:25:35.504Z,69.67
2016-05-18T04:26:35.334Z,69.38
2016-05-18T04:27:35.494Z,69.57
2016-05-18T04:28:35.496Z,69.51
2016-05-18T04:29:35.482Z,69.23
2016-05-18T04:30:48.220Z,69.32
2016-05-18T04:31:35.487Z,69.1
2016-05-18T04:32:35.490Z,69.51
2016-05-18T04:33:35.509Z,69.04
2016-05-18T04:34:35.496Z,69.13
2016-05-18T04:35:35.328Z,68.75
2016-05-18T04:36:35.471Z,68.94
2016-05-18T04:37:35.489Z,68.56
2016-05-18T04:38:35.320Z,67.99
2016-05-18T04:39:35.479Z,68.18
2016-05-18T04:40:35.481Z,68.27
2016-05-18T04:41:35.484Z,68.37
2016-05-18T04:42:35.455Z,68.08
2016-05-18T04:43:35.458Z,67.99
2016-05-18T04:44:35.461Z,68.46
2016-05-18T04:45:35.480Z,68.65
2016-05-18T04:46:54.653Z,68.56
2016-05-18T04:47:35.453Z,68.75
2016-05-18T04:48:35.455Z,68.84
2016-05-18T04:49:35.474Z,68.84
2016-05-18T04:50:35.461Z,68.46
2016-05-18T04:51:35.292Z,68.84
2016-05-18T04:52:35.452Z,68.75
2016-05-18T04:53:35.454Z,68.75
2016-05-18T04:54:35.441Z,68.56
2016-05-18T04:55:35.443Z,68.65
2016-05-18T04:56:54.665Z,68.46
2016-05-18T04:57:35.464Z,68.08
2016-05-18T04:58:35.280Z,68.75
2016-05-18T04:59:35.282Z,67.89
2016-05-18T05:00:35.473Z,68.37
2016-05-18T05:01:35.444Z,68.37
2016-05-18T05:02:35.446Z,68.18
2016-05-18T05:03:35.465Z,67.8
2016-05-18T05:04:35.451Z,68.37
2016-05-18T05:05:35.439Z,68.08
2016-05-18T05:06:35.426Z,67.99
2016-05-18T05:07:35.444Z,68.12
2016-05-18T05:08:48.166Z,68.02
2016-05-18T05:09:35.435Z,68.69
2016-05-18T05:10:35.264Z,68.59
2016-05-18T05:11:35.439Z,68.5
2016-05-18T05:12:35.442Z,68.59
2016-05-18T05:13:35.445Z,68.12
2016-05-18T05:14:35.416Z,68.02
2016-05-18T05:15:35.419Z,68.4
2016-05-18T05:16:35.453Z,68.4
2016-05-18T05:17:35.456Z,67.83
2016-05-18T05:18:35.412Z,68.21
2016-05-18T05:19:35.414Z,68.12
2016-05-18T05:20:35.416Z,67.83
2016-05-18T05:21:35.247Z,67.26
2016-05-18T05:22:55.079Z,67.29
2016-05-18T05:23:35.535Z,67.07
2016-05-18T05:24:35.256Z,67.58
2016-05-18T05:25:35.415Z,67.39
2016-05-18T05:26:35.402Z,66.82
2016-05-18T05:27:35.404Z,66.91
2016-05-18T05:28:35.408Z,66.53
2016-05-18T05:29:35.410Z,65.96
2016-05-18T05:30:35.256Z,66.05
2016-05-18T05:31:35.415Z,65.96
2016-05-18T05:32:35.402Z,65.67
2016-05-18T05:33:35.405Z,65.86
2016-05-18T05:34:35.407Z,65.39
2016-05-18T05:35:36.832Z,65.2
2016-05-18T05:36:35.256Z,65.29
2016-05-18T05:37:35.416Z,65
2016-05-18T05:38:35.418Z,65.1
2016-05-18T05:39:35.406Z,65.33
2016-05-18T05:40:35.409Z,65.48
2016-05-18T05:41:35.395Z,65.39
2016-05-18T05:42:35.414Z,65.48
2016-05-18T05:43:35.400Z,65
2016-05-18T05:44:35.403Z,65.1
2016-05-18T05:45:35.391Z,65.39
2016-05-18T05:46:54.596Z,65.39
2016-05-18T05:47:35.396Z,65.39
2016-05-18T05:48:35.399Z,65.58
2016-05-18T05:49:35.401Z,65.39
2016-05-18T05:50:35.404Z,65.39
2016-05-18T05:51:35.422Z,65.2
2016-05-18T05:52:35.409Z,64.75
2016-05-18T05:53:36.021Z,64.75
2016-05-18T05:54:35.399Z,64.47
2016-05-18T05:55:35.402Z,64.56
2016-05-18T05:56:35.405Z,64.09
2016-05-18T05:57:35.408Z,63.7
2016-05-18T05:58:54.613Z,63.8
2016-05-18T05:59:35.396Z,63.7
2016-05-18T06:00:35.384Z,63.6
2016-05-18T06:01:35.402Z,63.89
2016-05-18T06:02:35.390Z,63.89
2016-05-18T06:03:35.251Z,63.99
2016-05-18T06:04:35.395Z,63.7
2016-05-18T06:05:35.241Z,63.8
2016-05-18T06:06:35.400Z,63.8
2016-05-18T06:07:35.403Z,63.51
2016-05-18T06:08:35.390Z,63.99
2016-05-18T06:09:35.392Z,64.09
2016-05-18T06:10:35.395Z,64.18
2016-05-18T06:11:35.398Z,63.8
2016-05-18T06:12:35.400Z,64.37
2016-05-18T06:13:35.403Z,63.6
2016-05-18T06:14:54.608Z,63.26
2016-05-18T06:15:35.408Z,63.26
2016-05-18T06:16:35.396Z,63.07
2016-05-18T06:17:35.398Z,62.78
2016-05-18T06:18:35.385Z,62.68
2016-05-18T06:19:35.388Z,62.3
2016-05-18T06:20:35.235Z,62.4
2016-05-18T06:21:35.409Z,61.44
2016-05-18T06:22:35.396Z,61.38
2016-05-18T06:23:54.602Z,60.33
2016-05-18T06:24:35.402Z,58.83
2016-05-18T06:25:35.404Z,57.97
2016-05-18T06:26:35.391Z,57.04
2016-05-18T06:27:35.410Z,56.47
2016-05-18T06:28:35.427Z,55.45
2016-05-18T06:29:35.399Z,54.59
2016-05-18T06:30:35.418Z,53.92
2016-05-18T06:31:35.420Z,53.92
2016-05-18T06:32:35.267Z,53.47
2016-05-18T06:33:35.285Z,52.42
2016-05-18T06:34:35.413Z,51.2
2016-05-18T06:35:54.635Z,50.52
2016-05-18T06:36:35.418Z,49.6
2016-05-18T06:37:35.421Z,48.66
2016-05-18T06:38:35.439Z,47.32
2016-05-18T06:39:35.426Z,46.1
2016-05-18T06:40:35.445Z,45.26
2016-05-18T06:41:35.432Z,46.03
2016-05-18T06:42:35.450Z,45.93
2016-05-18T06:43:35.436Z,46.03
2016-05-18T06:44:35.470Z,46.29
2016-05-18T06:45:54.677Z,46.29
2016-05-18T06:46:35.461Z,46.58
2016-05-18T06:47:35.463Z,47.15
2016-05-18T06:48:35.467Z,47.61
2016-05-18T06:49:35.453Z,47.71
2016-05-18T06:50:35.472Z,48.18
2016-05-18T06:51:54.678Z,47.89
2016-05-18T06:52:35.508Z,48.57
2016-05-18T06:53:35.370Z,48.38
2016-05-18T06:54:35.342Z,47.99
2016-05-18T06:55:35.516Z,47.8
2016-05-18T06:56:35.503Z,47.22
2016-05-18T06:57:35.538Z,47.51
2016-05-18T06:58:35.524Z,47.03
2016-05-18T06:59:35.511Z,46.86
2016-05-18T07:00:35.968Z,46.86
2016-05-18T07:01:35.516Z,46.48
2016-05-18T07:02:35.519Z,46.96
2016-05-18T07:03:35.366Z,46.67
2016-05-18T07:04:35.524Z,46.77
2016-05-18T07:05:54.762Z,46.58
2016-05-18T07:06:35.390Z,46.48
2016-05-18T07:07:35.548Z,46.39
2016-05-18T07:08:35.582Z,45.83
2016-05-18T07:09:35.570Z,46.03
2016-05-18T07:10:35.666Z,45.9
2016-05-18T07:11:35.575Z,46
2016-05-18T07:12:35.593Z,46.19
2016-05-18T07:13:35.580Z,45.14
2016-05-18T07:14:35.599Z,44.97
2016-05-18T07:15:36.101Z,44.7
2016-05-18T07:16:35.604Z,43.27
2016-05-18T07:17:48.325Z,42.79
2016-05-18T07:18:35.594Z,42.13
2016-05-18T07:19:35.612Z,41.29
2016-05-18T07:20:36.724Z,40.91
2016-05-18T07:21:35.617Z,40.93
2016-05-18T07:22:35.464Z,40.73
2016-05-18T07:23:35.466Z,40.64
2016-05-18T07:24:35.625Z,41.12
2016-05-18T07:25:37.300Z,41.58
2016-05-18T07:26:35.647Z,42.16
2016-05-18T07:27:35.649Z,43.57
2016-05-18T07:28:35.730Z,42.9
2016-05-18T07:29:35.655Z,42.52
2016-05-18T07:30:35.845Z,43.38
2016-05-18T07:31:54.864Z,43.38
2016-05-18T07:32:35.663Z,43.29
2016-05-18T07:33:35.696Z,42.61
2016-05-18T07:34:35.684Z,42.71
2016-05-18T07:35:35.671Z,42.61
2016-05-18T07:36:35.690Z,42.13
2016-05-18T07:37:35.692Z,42.06
2016-05-18T07:38:35.710Z,42.16
2016-05-18T07:39:35.697Z,41.67
2016-05-18T07:40:35.763Z,41.29
2016-05-18T07:41:48.499Z,41.31
2016-05-18T07:42:35.737Z,41.67
2016-05-18T07:43:35.723Z,42.06
2016-05-18T07:44:35.742Z,41.5
2016-05-18T07:45:36.089Z,41.31
2016-05-18T07:46:35.748Z,40.83
2016-05-18T07:47:35.734Z,40.66
2016-05-18T07:48:35.768Z,40.66
2016-05-18T07:49:35.770Z,39.72
2016-05-18T07:50:54.992Z,39.24
2016-05-18T07:51:35.776Z,39.45
2016-05-18T07:52:35.778Z,39.54
2016-05-18T07:53:36.031Z,39.06
2016-05-18T07:54:35.784Z,39.53
2016-05-18T07:55:36.475Z,39.62
2016-05-18T07:56:55.008Z,38.68
2016-05-18T07:57:35.808Z,38.39
2016-05-18T07:58:35.810Z,37.91
2016-05-18T07:59:35.814Z,38.97
2016-05-18T08:00:36.239Z,39.45
2016-05-18T08:01:35.819Z,39.91
2016-05-18T08:02:35.838Z,39.53
2016-05-18T08:03:35.840Z,39.81
2016-05-18T08:04:42.124Z,39.91
2016-05-18T08:05:36.971Z,39.91
2016-05-18T08:06:35.863Z,40.01
2016-05-18T08:07:35.866Z,40.3
2016-05-18T08:08:36.119Z,40.49
2016-05-18T08:09:35.888Z,40.68
2016-05-18T08:10:36.062Z,40.95
2016-05-18T08:11:35.893Z,40.78
2016-05-18T08:12:35.895Z,40.78
2016-05-18T08:13:35.914Z,40.68
2016-05-18T08:14:35.901Z,39.81
2016-05-18T08:15:35.919Z,39.06
2016-05-18T08:16:48.672Z,38.49
2016-05-18T08:17:42.205Z,39.54
2016-05-18T08:18:35.786Z,37.93
2016-05-18T08:19:35.930Z,38.22
2016-05-18T08:20:37.104Z,37.83
2016-05-18T08:21:35.967Z,37.93
2016-05-18T08:22:35.954Z,37.56
2016-05-18T08:23:35.816Z,37.56
2016-05-18T08:24:55.194Z,38.04
2016-05-18T08:25:55.212Z,37.37
2016-05-18T08:26:35.995Z,37.27
2016-05-18T08:27:35.993Z,37.85
2016-05-18T08:28:36.054Z,37.27
2016-05-18T08:29:36.098Z,37.18
2016-05-18T08:30:36.768Z,37.08
2016-05-18T08:31:36.188Z,37.46
2016-05-18T08:32:36.242Z,37.18
2016-05-18T08:33:36.260Z,37.27
2016-05-18T08:34:55.342Z,37.18
2016-05-18T08:35:37.077Z,37.08
2016-05-18T08:36:36.331Z,36.79
2016-05-18T08:37:36.346Z,36.79
2016-05-18T08:38:36.916Z,36.6
2016-05-18T08:39:36.377Z,36.13
2016-05-18T08:40:36.792Z,36.61
2016-05-18T08:41:36.425Z,36.33
2016-05-18T08:42:36.401Z,36.61
2016-05-18T08:43:36.438Z,36.23
2016-05-18T08:44:36.443Z,35.85
2016-05-18T08:45:36.494Z,35.75
2016-05-18T08:46:49.187Z,35.85
2016-05-18T08:47:36.472Z,37.08
2016-05-18T08:48:36.476Z,37.66
2016-05-18T08:49:36.495Z,37.54
2016-05-18T08:50:37.498Z,38.41
2016-05-18T08:51:49.221Z,38.99
2016-05-18T08:52:36.505Z,38.02
2016-05-18T08:53:36.508Z,38.29
2016-05-18T08:54:36.526Z,38.7
2016-05-18T08:55:37.811Z,38.22
2016-05-18T08:56:55.719Z,37.54
2016-05-18T08:57:36.519Z,36.77
2016-05-18T08:58:36.536Z,36.97
2016-05-18T08:59:36.555Z,36.87
2016-05-18T09:00:36.558Z,37.06
2016-05-18T09:01:55.623Z,39.47
2016-05-18T09:02:36.594Z,38.22
2016-05-18T09:03:36.410Z,38.02
2016-05-18T09:04:36.585Z,35.91
2016-05-18T09:05:55.790Z,36.39
2016-05-18T09:06:36.433Z,37.26
2016-05-18T09:07:36.607Z,38.31
2016-05-18T09:08:36.610Z,37.35
2016-05-18T09:09:36.613Z,36.58
2016-05-18T09:10:49.351Z,36.77
2016-05-18T09:11:37.275Z,37.06
2016-05-18T09:12:36.621Z,37.93
2016-05-18T09:13:36.640Z,37.16
2016-05-18T09:14:36.642Z,37.35
2016-05-18T09:15:49.395Z,34.94
2016-05-18T09:16:36.648Z,33.21
2016-05-18T09:17:36.667Z,30.13
2016-05-18T09:18:36.669Z,29.73
2016-05-18T09:19:36.703Z,28.38
2016-05-18T09:20:36.689Z,28.38
2016-05-18T09:21:36.692Z,28.67
2016-05-18T09:22:56.023Z,28.67
2016-05-18T09:23:37.042Z,28.48
2016-05-18T09:24:36.700Z,29.06
2016-05-18T09:25:37.219Z,27.91
2016-05-18T09:26:36.722Z,27.81
2016-05-18T09:27:55.943Z,26.65
2016-05-18T09:28:36.727Z,26.65
2016-05-18T09:29:36.729Z,26.28
2016-05-18T09:30:36.732Z,25.9
2016-05-18T09:31:49.469Z,25.62
2016-05-18T09:32:36.753Z,24.95
2016-05-18T09:33:36.755Z,25.04
2016-05-18T09:34:36.758Z,25.44
2016-05-18T09:35:36.761Z,26.4
2016-05-18T09:36:49.513Z,26.58
2016-05-18T09:37:36.782Z,26.89
2016-05-18T09:38:36.957Z,27.93
2016-05-18T09:39:36.788Z,29.38
2016-05-18T09:40:36.806Z,29.86
2016-05-18T09:41:36.793Z,30.05
2016-05-18T09:42:49.529Z,29.95
2016-05-18T09:43:49.392Z,30.61
2016-05-18T09:44:36.864Z,30.52
2016-05-18T09:45:36.835Z,30.8
2016-05-18T09:46:36.837Z,30.8
2016-05-18T09:47:36.840Z,29.65
2016-05-18T09:48:36.859Z,29.55
2016-05-18T09:49:49.595Z,30.13
2016-05-18T09:50:43.130Z,30.71
2016-05-18T09:51:56.054Z,31.19
2016-05-18T09:52:36.870Z,31
2016-05-18T09:54:08.169Z,31.46
2016-05-18T09:54:52.203Z,31.27
2016-05-18T09:55:52.144Z,31.27
2016-05-18T09:56:52.162Z,31.37
2016-05-18T09:57:52.149Z,31.75
2016-05-18T09:59:11.370Z,31.46
2016-05-18T09:59:59.779Z,32.04
2016-05-18T10:00:58.360Z,32.43
2016-05-18T10:01:58.363Z,32.71
2016-05-18T10:03:04.647Z,32.33
2016-05-18T10:03:58.399Z,31.95
2016-05-18T10:04:58.402Z,32.71
2016-05-18T10:05:58.421Z,31.57
2016-05-18T10:07:17.594Z,30.8
2016-05-18T10:07:58.254Z,30.9
2016-05-18T10:08:58.288Z,30.61
2016-05-18T10:09:58.415Z,30.52
2016-05-18T10:10:58.418Z,31.67
2016-05-18T10:11:58.468Z,31.56
2016-05-18T10:12:58.282Z,32.14
2016-05-18T10:13:58.426Z,32.14
2016-05-18T10:14:58.460Z,32.33
2016-05-18T10:15:58.275Z,32.43
2016-05-18T10:16:58.450Z,32.04
2016-05-18T10:17:58.453Z,31.65
2016-05-18T10:18:58.471Z,31.29
2016-05-18T10:19:58.489Z,31
2016-05-18T10:20:58.476Z,31.09
2016-05-18T10:21:58.339Z,30.04
2016-05-18T10:22:58.497Z,30.05
2016-05-18T10:24:11.312Z,30.43
2016-05-18T10:24:58.347Z,30.04
2016-05-18T10:25:58.505Z,29.94
2016-05-18T10:26:58.508Z,30.04
2016-05-18T10:27:58.526Z,30.22
2016-05-18T10:28:59.778Z,29.74
2016-05-18T10:29:58.531Z,29.55
2016-05-18T10:30:58.534Z,29.17
2016-05-18T10:31:58.537Z,28.8
2016-05-18T10:32:58.586Z,28.8
2016-05-18T10:33:58.542Z,28.61
2016-05-18T10:35:11.280Z,29.08
2016-05-18T10:35:58.564Z,28.7
2016-05-18T10:36:58.566Z,28.81
2016-05-18T10:37:59.021Z,28.91
2016-05-18T10:38:58.587Z,28.04
2016-05-18T10:39:58.590Z,27.27
2016-05-18T10:41:11.343Z,27.46
2016-05-18T10:41:58.455Z,28.23
2016-05-18T10:42:58.598Z,29.79
2016-05-18T10:43:58.616Z,28.15
2016-05-18T10:45:17.838Z,27.48
2016-05-18T10:45:58.621Z,27.48
2016-05-18T10:46:58.640Z,26.9
2016-05-18T10:47:58.659Z,27.46
2016-05-18T10:48:58.646Z,27.08
2016-05-18T10:50:11.382Z,26.21
2016-05-18T10:50:58.666Z,24.96
2016-05-18T10:51:58.654Z,24.67
2016-05-18T10:52:58.828Z,24.67
2016-05-18T10:53:58.518Z,24.96
2016-05-18T10:55:17.896Z,25.92
2016-05-18T10:55:58.695Z,27.56
2016-05-18T10:56:58.698Z,27.46
2016-05-18T10:57:58.701Z,26.31
2016-05-18T10:59:11.531Z,27.17
2016-05-18T10:59:58.722Z,29.68
2016-05-18T11:00:58.725Z,29.2
2016-05-18T11:01:58.728Z,25.92
2016-05-18T11:02:58.745Z,27.56
2016-05-18T11:03:58.748Z,27.37
2016-05-18T11:04:58.750Z,25.92
2016-05-18T11:06:17.957Z,24.76
2016-05-18T11:06:58.756Z,24.37
2016-05-18T11:07:58.619Z,24.37
2016-05-18T11:09:05.043Z,24.66
2016-05-18T11:09:58.779Z,24.18
2016-05-18T11:10:58.814Z,25.23
2016-05-18T11:11:58.816Z,24.37
2016-05-18T11:12:58.804Z,24.18
2016-05-18T11:13:58.838Z,24.08
2016-05-18T11:14:58.809Z,24.37
2016-05-18T11:15:58.811Z,24.46
2016-05-18T11:17:11.565Z,24.56
2016-05-18T11:17:58.832Z,24.27
2016-05-18T11:18:58.679Z,24.08
2016-05-18T11:19:58.884Z,23.8
2016-05-18T11:20:58.840Z,26.11
2016-05-18T11:22:11.578Z,24.09
2016-05-18T11:22:58.862Z,23.61
2016-05-18T11:23:58.880Z,23.71
2016-05-18T11:25:18.086Z,23.62
2016-05-18T11:25:58.886Z,23.62
2016-05-18T11:26:58.888Z,23.52
2016-05-18T11:27:58.892Z,23.8
2016-05-18T11:28:58.909Z,23.62
2016-05-18T11:30:11.630Z,23.24
2016-05-18T11:31:11.492Z,22.94
2016-05-18T11:31:58.917Z,23.33
2016-05-18T11:32:58.966Z,23.14
2016-05-18T11:33:59.078Z,23.62
2016-05-18T11:34:58.941Z,23.61
2016-05-18T11:35:58.959Z,23.61
2016-05-18T11:36:58.946Z,23.8
2016-05-18T11:37:59.246Z,23.9
2016-05-18T11:38:58.967Z,23.72
2016-05-18T11:39:58.829Z,23.62
2016-05-18T11:40:58.972Z,23.14
2016-05-18T11:41:58.975Z,23.14
2016-05-18T11:42:58.994Z,23.14
2016-05-18T11:43:58.996Z,23.52
2016-05-18T11:45:05.296Z,24.01
2016-05-18T11:45:59.017Z,23.81
2016-05-18T11:46:59.020Z,23.91
2016-05-18T11:47:59.023Z,24.01
2016-05-18T11:49:11.759Z,23.33
2016-05-18T11:49:59.044Z,23.54
2016-05-18T11:50:59.031Z,23.34
2016-05-18T11:51:59.033Z,22.77
2016-05-18T11:52:59.302Z,24.9
2016-05-18T11:53:59.054Z,23.34
2016-05-18T11:55:05.339Z,22.96
2016-05-18T11:55:59.075Z,24.01
2016-05-18T11:56:59.062Z,24.29
2016-05-18T11:57:59.081Z,25.63
2016-05-18T11:58:59.083Z,26.31
2016-05-18T11:59:59.273Z,29.29
2016-05-18T12:00:59.089Z,27.57
2016-05-18T12:02:11.841Z,27.48
2016-05-18T12:02:59.110Z,27.96
2016-05-18T12:03:59.128Z,27.57
2016-05-18T12:04:59.116Z,25.93
2016-05-18T12:05:59.133Z,24.6
2016-05-18T12:06:59.183Z,23.54
2016-05-18T12:07:59.764Z,22.76
2016-05-18T12:09:02.266Z,22.96
2016-05-18T12:09:59.175Z,23.24
2016-05-18T12:10:59.147Z,23.15
2016-05-18T12:12:11.916Z,23.34
2016-05-18T12:12:59.027Z,23.54
2016-05-18T12:13:59.186Z,23.05
2016-05-18T12:14:59.188Z,22.57
2016-05-18T12:16:11.926Z,22.96
2016-05-18T12:16:59.210Z,22.67
2016-05-18T12:17:59.212Z,23.15
2016-05-18T12:18:59.216Z,23.34
2016-05-18T12:20:02.546Z,23.63
2016-05-18T12:20:59.236Z,23.43
2016-05-18T12:21:59.240Z,23.52
2016-05-18T12:22:59.695Z,24.01
2016-05-18T12:24:02.275Z,23.72
2016-05-18T12:25:02.685Z,23.52
2016-05-18T12:25:59.265Z,23.52
2016-05-18T12:26:59.268Z,23.91
2016-05-18T12:27:59.270Z,24.09
2016-05-18T12:28:59.273Z,24.49
2016-05-18T12:30:04.745Z,23.91
2016-05-18T12:31:11.872Z,23.72
2016-05-18T12:31:59.313Z,23.81
2016-05-18T12:32:59.347Z,23.9
2016-05-18T12:34:12.052Z,24.09
2016-05-18T12:35:02.087Z,24.09
2016-05-18T12:35:59.324Z,24.28
2016-05-18T12:36:59.326Z,24.09
2016-05-18T12:37:59.345Z,24.09
2016-05-18T12:38:59.957Z,23.9
2016-05-18T12:40:01.209Z,23.62
2016-05-18T12:40:59.383Z,23.43
2016-05-18T12:41:59.215Z,24.11
2016-05-18T12:42:59.202Z,27.59
2016-05-18T12:43:59.220Z,26.53
2016-05-18T12:45:12.129Z,25.08
2016-05-18T12:45:59.226Z,24.88
2016-05-18T12:46:59.400Z,23.82
2016-05-18T12:47:59.402Z,22.67
2016-05-18T12:48:59.404Z,22.47
2016-05-18T12:50:02.799Z,22.86
2016-05-18T12:51:05.692Z,23.24
2016-05-18T12:51:59.413Z,23.44
2016-05-18T12:52:59.448Z,23.34
2016-05-18T12:53:59.793Z,23.34
2016-05-18T12:55:02.968Z,23.34
2016-05-18T12:55:59.456Z,23.34
2016-05-18T12:56:59.474Z,23.62